Time;durP1;ratioP1;P1;durP2;ratioP2;P2;SDS_P1;SDS_P2;PMS_P1;PMS_P2;Temp;Humidity;BMP_temperature;BMP_pressure;BME280_temperature;BME280_humidity;BME280_pressure;Samples;Min_cycle;Max_cycle;Signal;HPM_P1;HPM_P2
2021/01/29 00:00:40;;;;;;;14.18;7.07;;;5.50;99.90;;;;;;5031849;28;20045;-70
2021/01/29 00:03:15;;;;;;;17.55;8.02;;;5.50;99.90;;;;;;5032319;28;20091;-70
2021/01/29 00:05:54;;;;;;;16.48;7.63;;;5.50;99.90;;;;;;5034867;28;20048;-70
2021/01/29 00:08:22;;;;;;;20.35;7.75;;;5.50;99.90;;;;;;5028913;28;20056;-70
2021/01/29 00:10:50;;;;;;;17.73;8.27;;;5.50;99.90;;;;;;5034130;28;20108;-70
2021/01/29 00:13:17;;;;;;;16.27;7.82;;;5.50;99.90;;;;;;5033408;28;20471;-70
2021/01/29 00:15:43;;;;;;;15.43;7.28;;;5.50;99.90;;;;;;5035547;28;20393;-70
2021/01/29 00:18:11;;;;;;;17.20;7.93;;;5.50;99.90;;;;;;5033325;28;20052;-70
2021/01/29 00:20:37;;;;;;;16.23;7.88;;;5.50;99.90;;;;;;5015951;28;20420;-70
2021/01/29 00:23:04;;;;;;;17.65;8.13;;;5.50;99.90;;;;;;5014361;28;20053;-70
2021/01/29 00:25:36;;;;;;;15.65;7.35;;;5.50;99.90;;;;;;5009460;28;20435;-70
2021/01/29 00:28:05;;;;;;;19.08;8.13;;;5.50;99.90;;;;;;5012274;28;20455;-70
2021/01/29 00:30:32;;;;;;;17.05;8.15;;;5.50;99.90;;;;;;5013672;28;20432;-70
2021/01/29 00:33:00;;;;;;;18.20;8.57;;;5.50;99.90;;;;;;5013934;28;20053;-70
2021/01/29 00:35:29;;;;;;;18.60;8.10;;;5.50;99.90;;;;;;5013183;28;20511;-70
2021/01/29 00:37:56;;;;;;;17.02;8.38;;;5.60;99.90;;;;;;5009470;28;20092;-70
2021/01/29 00:40:24;;;;;;;14.75;7.93;;;5.50;99.90;;;;;;5012624;28;20049;-70
2021/01/29 00:42:51;;;;;;;18.80;8.50;;;5.50;99.90;;;;;;5014088;28;20057;-70
2021/01/29 00:45:21;;;;;;;14.90;7.15;;;5.60;99.90;;;;;;5013577;28;20056;-70
2021/01/29 00:47:48;;;;;;;16.92;9.13;;;5.60;99.90;;;;;;5014831;28;20057;-70
2021/01/29 00:50:15;;;;;;;19.30;8.75;;;5.60;99.90;;;;;;5016063;28;20511;-70
2021/01/29 00:52:42;;;;;;;18.30;8.32;;;5.60;99.90;;;;;;5015281;28;20049;-70
2021/01/29 00:55:10;;;;;;;16.30;8.02;;;5.60;99.90;;;;;;5012613;28;20037;-70
2021/01/29 00:57:37;;;;;;;16.63;8.20;;;5.60;99.90;;;;;;5011168;28;20056;-69
2021/01/29 01:00:07;;;;;;;15.82;8.57;;;5.60;99.90;;;;;;5015291;28;20041;-70
2021/01/29 01:02:34;;;;;;;22.65;10.23;;;5.60;99.90;;;;;;5018406;28;20392;-70
2021/01/29 01:05:01;;;;;;;20.75;9.23;;;5.60;99.90;;;;;;5014109;28;20057;-70
2021/01/29 01:07:27;;;;;;;21.70;9.90;;;5.60;99.90;;;;;;5012200;28;20571;-70
2021/01/29 01:09:54;;;;;;;25.25;11.40;;;5.70;99.90;;;;;;5008735;28;20049;-70
2021/01/29 01:12:20;;;;;;;18.60;9.48;;;5.70;99.90;;;;;;5011621;28;20802;-70
2021/01/29 01:14:47;;;;;;;19.58;9.38;;;5.70;99.90;;;;;;5012805;28;20054;-70
2021/01/29 01:17:13;;;;;;;18.70;8.70;;;5.70;99.90;;;;;;5014137;28;20045;-70
2021/01/29 01:19:39;;;;;;;19.88;9.13;;;5.70;99.90;;;;;;5009412;28;20047;-70
2021/01/29 01:22:07;;;;;;;19.35;9.02;;;5.70;99.90;;;;;;5024347;28;20053;-70
2021/01/29 01:24:40;;;;;;;19.42;9.23;;;5.70;99.90;;;;;;5022912;28;20488;-70
2021/01/29 01:27:12;;;;;;;17.73;8.23;;;5.70;99.90;;;;;;5056039;28;20126;-70
2021/01/29 01:29:38;;;;;;;14.73;7.68;;;5.70;99.90;;;;;;5027076;28;20098;-70
2021/01/29 01:32:05;;;;;;;16.08;8.20;;;5.80;99.90;;;;;;5042546;28;20106;-70
2021/01/29 01:34:33;;;;;;;14.57;8.32;;;5.80;99.90;;;;;;5032268;28;20099;-70
2021/01/29 01:37:01;;;;;;;16.08;8.18;;;5.80;99.90;;;;;;5031214;28;20045;-70
2021/01/29 01:39:27;;;;;;;15.75;7.10;;;5.80;99.90;;;;;;5033449;28;20396;-70
2021/01/29 01:41:55;;;;;;;15.63;7.78;;;5.80;99.90;;;;;;5036036;28;20057;-70
2021/01/29 01:44:24;;;;;;;14.82;7.47;;;5.80;99.90;;;;;;5052981;28;20126;-70
2021/01/29 01:46:51;;;;;;;;;;;5.90;99.90;;;;;;5043049;28;20175;-70
2021/01/29 01:49:21;;;;;;;13.38;6.70;;;5.80;99.90;;;;;;5048957;28;19924;-70
2021/01/29 01:52:02;;;;;;;13.02;6.75;;;5.80;99.90;;;;;;5032788;28;20488;-70
2021/01/29 01:54:35;;;;;;;11.07;6.32;;;5.80;99.90;;;;;;5048464;28;20087;-70
2021/01/29 01:57:03;;;;;;;16.45;8.25;;;5.90;99.90;;;;;;5047665;28;20573;-70
2021/01/29 01:59:59;;;;;;;15.63;7.88;;;5.90;99.90;;;;;;5032149;28;20827;-70
2021/01/29 02:02:30;;;;;;;11.73;6.13;;;5.90;99.90;;;;;;5032063;28;20103;-70
2021/01/29 02:05:02;;;;;;;11.95;6.65;;;5.90;99.90;;;;;;5027716;28;20056;-70
2021/01/29 02:07:32;;;;;;;9.63;5.45;;;5.90;99.90;;;;;;5037904;28;20106;-70
2021/01/29 02:10:01;;;;;;;10.88;5.70;;;5.90;99.90;;;;;;5046056;28;20053;-70
2021/01/29 02:12:27;;;;;;;11.65;6.63;;;5.90;99.90;;;;;;5036072;28;20080;-70
2021/01/29 02:14:54;;;;;;;11.57;6.25;;;5.90;99.90;;;;;;5037377;28;20049;-70
2021/01/29 02:17:46;;;;;;;14.82;7.90;;;5.90;99.90;;;;;;5037222;28;20045;-70
2021/01/29 02:20:47;;;;;;;11.70;5.93;;;6.00;99.90;;;;;;5034654;28;20088;-70
2021/01/29 02:23:29;;;;;;;11.55;6.47;;;6.00;99.90;;;;;;5037225;28;20084;-70
2021/01/29 02:26:29;;;;;;;10.60;5.65;;;6.00;99.90;;;;;;5028474;28;20049;-70
2021/01/29 02:29:32;;;;;;;11.15;6.03;;;6.00;99.90;;;;;;5034973;28;20411;-70
2021/01/29 02:32:35;;;;;;;10.38;5.55;;;6.00;99.90;;;;;;5048754;28;20060;-70
2021/01/29 02:35:35;;;;;;;9.38;5.32;;;6.00;99.90;;;;;;5013604;28;20487;-70
2021/01/29 02:38:04;;;;;;;9.80;5.53;;;6.10;99.90;;;;;;5032692;28;20163;-70
2021/01/29 02:40:31;;;;;;;9.88;6.15;;;6.10;99.90;;;;;;5052417;28;20110;-70
2021/01/29 02:43:09;;;;;;;13.13;5.80;;;6.10;99.90;;;;;;5032711;28;20091;-70
2021/01/29 02:45:46;;;;;;;9.90;5.78;;;6.10;99.90;;;;;;5051847;28;20044;-70
2021/01/29 02:48:19;;;;;;;9.63;5.53;;;6.10;99.90;;;;;;5026436;28;20548;-70
2021/01/29 02:50:48;;;;;;;11.32;6.10;;;6.10;99.90;;;;;;5025418;28;20421;-70
2021/01/29 02:53:37;;;;;;;10.85;5.47;;;6.20;99.90;;;;;;5035145;28;20045;-70
2021/01/29 02:56:29;;;;;;;12.00;5.40;;;6.20;99.90;;;;;;5045366;28;20349;-70
2021/01/29 02:59:14;;;;;;;8.52;4.70;;;6.20;99.90;;;;;;5031174;28;20095;-70
2021/01/29 03:01:52;;;;;;;9.23;5.03;;;6.30;99.90;;;;;;5030456;28;20073;-73
2021/01/29 03:04:30;;;;;;;10.60;5.22;;;6.30;99.90;;;;;;5035051;28;20067;-73
2021/01/29 03:07:03;;;;;;;7.18;4.60;;;6.30;99.90;;;;;;5033098;28;20049;-73
2021/01/29 03:09:43;;;;;;;9.38;5.28;;;6.40;99.90;;;;;;5032809;28;20417;-73
2021/01/29 03:12:23;;;;;;;8.32;5.13;;;6.40;99.90;;;;;;5042918;28;20126;-73
2021/01/29 03:15:12;;;;;;;6.75;4.63;;;6.40;99.90;;;;;;5035584;28;20124;-73
2021/01/29 03:17:41;;;;;;;10.15;5.25;;;6.50;99.90;;;;;;5032866;28;20049;-73
2021/01/29 03:20:30;;;;;;;7.35;4.55;;;6.50;99.90;;;;;;5039818;28;20136;-73
2021/01/29 03:23:01;;;;;;;7.72;4.95;;;6.50;99.90;;;;;;5037910;28;20052;-73
2021/01/29 03:25:38;;;;;;;9.65;5.18;;;6.60;99.90;;;;;;5048333;28;20150;-73
2021/01/29 03:28:09;;;;;;;8.23;4.75;;;6.60;99.90;;;;;;5039480;28;20049;-73
2021/01/29 03:30:40;;;;;;;8.88;4.72;;;6.60;99.90;;;;;;5035690;28;20056;-73
2021/01/29 03:33:36;;;;;;;10.02;5.60;;;6.70;99.90;;;;;;5036778;28;20434;-73
2021/01/29 03:36:19;;;;;;;8.73;5.00;;;6.70;99.90;;;;;;5030689;28;20097;-73
2021/01/29 03:39:22;;;;;;;10.32;5.18;;;6.70;99.90;;;;;;5020186;28;20121;-74
2021/01/29 03:42:18;;;;;;;13.80;6.53;;;6.80;99.90;;;;;;5038869;28;20114;-74
2021/01/29 03:45:13;;;;;;;10.13;5.38;;;6.80;99.90;;;;;;5031714;28;20049;-74
2021/01/29 03:51:05;;;;;;;;;;;6.90;99.90;;;;;;5048875;28;20380;-74
2021/01/29 03:53:58;;;;;;;9.32;5.05;;;6.90;99.90;;;;;;5039389;28;19921;-74
2021/01/29 03:56:46;;;;;;;10.07;6.18;;;7.00;99.90;;;;;;5050569;28;20045;-74
2021/01/29 03:59:24;;;;;;;12.35;7.00;;;7.00;99.90;;;;;;5040611;28;20053;-74
2021/01/29 04:02:14;;;;;;;15.45;6.82;;;7.10;99.90;;;;;;5043469;28;20538;-74
2021/01/29 04:04:47;;;;;;;9.30;5.82;;;7.10;99.90;;;;;;5033413;28;20415;-74
2021/01/29 04:07:37;;;;;;;13.30;6.00;;;7.20;99.90;;;;;;5040713;28;20049;-74
2021/01/29 04:10:13;;;;;;;8.98;5.43;;;7.20;99.90;;;;;;5030145;28;20152;-74
2021/01/29 04:12:49;;;;;;;9.20;5.35;;;7.30;99.90;;;;;;5038662;28;20045;-74
2021/01/29 04:15:31;;;;;;;7.85;5.63;;;7.30;99.90;;;;;;5033187;28;20541;-74
2021/01/29 04:18:23;;;;;;;9.38;5.18;;;7.30;99.90;;;;;;5032800;28;20067;-74
2021/01/29 04:21:00;;;;;;;8.55;4.97;;;7.30;99.90;;;;;;5036330;28;20110;-74
2021/01/29 04:23:57;;;;;;;8.23;5.10;;;7.30;99.90;;;;;;5032948;28;20053;-74
2021/01/29 04:26:30;;;;;;;6.68;4.65;;;7.40;99.90;;;;;;5027200;28;20507;-74
2021/01/29 04:29:14;;;;;;;8.45;4.63;;;7.40;99.90;;;;;;5035817;28;20102;-74
2021/01/29 04:31:41;;;;;;;7.63;5.00;;;7.40;99.90;;;;;;5032223;28;20106;-74
2021/01/29 04:34:23;;;;;;;9.13;5.80;;;7.50;99.90;;;;;;5042852;28;20067;-74
2021/01/29 04:36:55;;;;;;;9.60;5.80;;;7.50;99.90;;;;;;5030775;28;20053;-74
2021/01/29 04:39:42;;;;;;;8.77;5.72;;;7.60;99.90;;;;;;5030038;28;20090;-74
2021/01/29 04:42:46;;;;;;;7.45;5.00;;;7.60;99.90;;;;;;5022157;28;20401;-74
2021/01/29 04:45:15;;;;;;;6.97;4.35;;;7.60;99.90;;;;;;5049875;28;20077;-74
2021/01/29 04:47:53;;;;;;;10.18;5.38;;;7.70;99.90;;;;;;5032387;28;20053;-74
2021/01/29 04:50:32;;;;;;;9.80;5.38;;;7.70;99.90;;;;;;5029714;28;20052;-74
2021/01/29 04:53:17;;;;;;;9.40;5.32;;;7.80;99.90;;;;;;5030424;28;20160;-74
2021/01/29 04:56:05;;;;;;;8.90;5.10;;;7.80;99.90;;;;;;5045971;28;20049;-74
2021/01/29 04:58:37;;;;;;;9.02;5.22;;;7.90;99.90;;;;;;5016825;28;20350;-74
2021/01/29 05:01:23;;;;;;;9.13;5.18;;;8.00;99.90;;;;;;5017159;28;20108;-74
2021/01/29 05:04:09;;;;;;;8.88;5.00;;;8.00;99.90;;;;;;5018338;28;20060;-74
2021/01/29 05:07:00;;;;;;;8.73;4.80;;;8.10;99.90;;;;;;5028139;28;20516;-74
2021/01/29 05:09:52;;;;;;;9.50;4.82;;;8.20;99.90;;;;;;5021292;28;20193;-75
2021/01/29 05:12:34;;;;;;;8.85;5.10;;;8.40;99.90;;;;;;5021510;28;20444;-75
2021/01/29 05:15:15;;;;;;;7.85;4.65;;;8.50;99.90;;;;;;5024412;28;20077;-76
2021/01/29 05:18:06;;;;;;;7.63;4.45;;;8.60;99.90;;;;;;5023583;28;20775;-76
2021/01/29 05:20:56;;;;;;;8.40;4.75;;;8.70;99.90;;;;;;5022875;28;20146;-75
2021/01/29 05:23:34;;;;;;;7.60;4.30;;;8.70;99.90;;;;;;5037547;28;20142;-75
2021/01/29 05:26:20;;;;;;;7.28;4.10;;;8.80;99.90;;;;;;5023797;28;20049;-76
2021/01/29 05:29:20;;;;;;;8.38;4.30;;;8.80;99.90;;;;;;5023199;28;20092;-75
2021/01/29 05:31:57;;;;;;;7.57;4.10;;;8.80;99.90;;;;;;5016431;28;21098;-75
2021/01/29 05:34:37;;;;;;;7.07;3.22;;;8.80;99.90;;;;;;5036660;28;20048;-76
2021/01/29 05:37:25;;;;;;;7.03;3.75;;;8.90;99.90;;;;;;5026664;28;20049;-76
2021/01/29 05:40:10;;;;;;;5.35;3.33;;;8.80;99.90;;;;;;5033869;28;20103;-76
2021/01/29 05:43:22;;;;;;;7.25;4.00;;;8.90;99.90;;;;;;5029972;28;20056;-76
2021/01/29 05:46:00;;;;;;;5.00;3.35;;;8.90;99.90;;;;;;5034180;28;20411;-76
2021/01/29 05:48:48;;;;;;;6.18;3.72;;;8.90;99.90;;;;;;5032586;28;20053;-76
2021/01/29 05:52:13;;;;;;;5.13;3.17;;;8.90;99.90;;;;;;5037547;28;20129;-75
2021/01/29 05:55:13;;;;;;;5.30;2.80;;;8.80;99.90;;;;;;5030001;28;20307;-76
2021/01/29 05:58:00;;;;;;;4.55;2.88;;;8.80;99.90;;;;;;5031589;28;20153;-76
2021/01/29 06:00:57;;;;;;;4.90;2.58;;;8.80;99.90;;;;;;5038984;28;20053;-75
2021/01/29 06:03:26;;;;;;;6.20;2.53;;;8.80;99.90;;;;;;5033416;28;20147;-76
2021/01/29 06:06:12;;;;;;;4.32;2.28;;;8.70;99.90;;;;;;5035996;28;20041;-76
2021/01/29 06:09:20;;;;;;;3.42;2.10;;;8.70;99.90;;;;;;5051836;28;20067;-77
2021/01/29 06:11:55;;;;;;;3.00;1.90;;;8.70;99.90;;;;;;4934422;29;20059;-76
2021/01/29 06:15:01;;;;;;;3.33;2.03;;;8.70;99.90;;;;;;5028836;28;20104;-77
2021/01/29 06:17:47;;;;;;;4.45;1.58;;;8.70;99.90;;;;;;5029998;28;20052;-76
2021/01/29 06:20:29;;;;;;;3.30;1.60;;;8.60;99.90;;;;;;5035537;28;20487;-76
2021/01/29 06:23:19;;;;;;;4.20;1.60;;;8.60;99.90;;;;;;5036220;28;20045;-76
2021/01/29 06:25:48;;;;;;;;;;;8.60;99.90;;;;;;5057833;28;20056;-77
2021/01/29 06:28:29;;;;;;;2.30;1.50;;;8.60;99.90;;;;;;5029497;28;19925;-76
2021/01/29 06:31:11;;;;;;;3.03;1.40;;;8.60;99.90;;;;;;5044813;28;20452;-76
2021/01/29 06:34:01;;;;;;;2.60;1.52;;;8.60;99.90;;;;;;5031268;28;20059;-76
2021/01/29 06:36:47;;;;;;;2.97;1.40;;;8.60;99.90;;;;;;5052831;28;20118;-77
2021/01/29 06:39:20;;;;;;;2.05;1.30;;;8.60;99.90;;;;;;5036308;28;20151;-77
2021/01/29 06:42:06;;;;;;;3.50;1.25;;;8.50;99.90;;;;;;5026721;28;20045;-76
2021/01/29 06:45:00;;;;;;;4.63;1.40;;;8.50;99.90;;;;;;5040187;28;20049;-77
2021/01/29 06:47:55;;;;;;;2.17;1.30;;;8.50;99.90;;;;;;5051277;28;21379;-76
2021/01/29 06:50:40;;;;;;;3.45;1.25;;;8.50;99.90;;;;;;5028661;28;20488;-77
2021/01/29 06:53:30;;;;;;;4.97;1.55;;;8.50;99.90;;;;;;5039939;28;20041;-77
2021/01/29 06:56:21;;;;;;;2.45;1.20;;;8.50;99.90;;;;;;5037698;28;20049;-76
2021/01/29 06:59:17;;;;;;;4.82;1.60;;;8.50;99.90;;;;;;5033744;28;20041;-76
2021/01/29 07:02:16;;;;;;;4.63;1.40;;;8.50;99.90;;;;;;5033695;28;20124;-76
2021/01/29 07:04:55;;;;;;;2.90;1.45;;;8.50;99.90;;;;;;5034955;28;20052;-76
2021/01/29 07:07:43;;;;;;;3.25;1.30;;;8.50;99.90;;;;;;5033115;28;20053;-76
2021/01/29 07:10:29;;;;;;;3.80;1.30;;;8.50;99.90;;;;;;5033256;28;20045;-77
2021/01/29 07:13:08;;;;;;;3.50;0.93;;;8.50;99.90;;;;;;5035005;28;20458;-76
2021/01/29 07:16:09;;;;;;;1.77;1.08;;;8.50;99.90;;;;;;5032033;28;20443;-76
2021/01/29 07:18:41;;;;;;;3.70;0.95;;;8.50;99.90;;;;;;5026302;28;20045;-76
2021/01/29 07:21:34;;;;;;;1.58;0.80;;;8.50;99.90;;;;;;5024655;28;20598;-76
2021/01/29 07:24:25;;;;;;;2.38;0.80;;;8.50;99.90;;;;;;5026333;28;20106;-76
2021/01/29 07:27:02;;;;;;;2.55;1.00;;;8.50;99.90;;;;;;5033496;28;20052;-76
2021/01/29 07:29:43;;;;;;;2.50;1.17;;;8.50;99.90;;;;;;5035133;28;20075;-76
2021/01/29 07:32:37;;;;;;;4.53;1.35;;;8.60;99.90;;;;;;5030912;28;20106;-75
2021/01/29 07:35:13;;;;;;;2.97;1.25;;;8.60;99.90;;;;;;5025244;28;20052;-76
2021/01/29 07:38:18;;;;;;;2.95;1.55;;;8.60;99.90;;;;;;5040498;28;20103;-74
2021/01/29 07:41:02;;;;;;;2.13;1.40;;;8.70;99.90;;;;;;5027419;28;20049;-73
2021/01/29 07:43:52;;;;;;;6.45;2.17;;;8.70;99.90;;;;;;5028519;28;20045;-73
2021/01/29 07:46:52;;;;;;;4.60;2.05;;;8.70;99.90;;;;;;5026461;28;20456;-76
2021/01/29 07:49:51;;;;;;;4.18;1.90;;;8.70;99.90;;;;;;5041474;28;20337;-76
2021/01/29 07:52:25;;;;;;;7.30;2.20;;;8.80;99.90;;;;;;5025930;28;20067;-73
2021/01/29 07:55:11;;;;;;;4.75;1.63;;;8.80;99.90;;;;;;5029390;28;20053;-73
2021/01/29 07:58:06;;;;;;;5.63;1.58;;;8.80;99.90;;;;;;5042073;28;20045;-73
2021/01/29 08:00:57;;;;;;;9.05;2.08;;;8.80;99.90;;;;;;5024744;28;20045;-73
2021/01/29 08:06:54;;;;;;;12.23;1.98;;;8.80;99.90;;;;;;5042869;28;20052;-73
2021/01/29 08:13:07;;;;;;;8.48;2.58;;;8.80;99.90;;;;;;5047623;28;20441;-74
2021/01/29 08:20:06;;;;;;;13.38;2.25;;;8.80;99.90;;;;;;5046528;28;20078;-73
2021/01/29 08:23:26;;;;;;;11.45;2.05;;;8.80;99.90;;;;;;5024140;28;20041;-74
2021/01/29 08:26:27;;;;;;;8.80;2.53;;;8.70;99.90;;;;;;5046693;28;20045;-73
2021/01/29 08:29:31;;;;;;;13.45;2.47;;;8.70;99.90;;;;;;5033042;28;20470;-73
2021/01/29 08:35:49;;;;;;;14.18;2.50;;;8.70;99.90;;;;;;5047749;28;20058;-74
2021/01/29 08:38:35;;;;;;;9.57;2.25;;;8.70;99.90;;;;;;5028328;28;20061;-73
2021/01/29 08:41:27;;;;;;;12.45;2.92;;;8.70;99.90;;;;;;5024804;28;20515;-74
2021/01/29 08:44:34;;;;;;;14.25;2.90;;;8.70;99.90;;;;;;5039311;28;20069;-74
2021/01/29 08:47:43;;;;;;;16.73;2.50;;;8.60;99.90;;;;;;5030533;28;20045;-74
2021/01/29 08:50:29;;;;;;;12.27;3.28;;;8.60;99.90;;;;;;5028390;28;20401;-74
2021/01/29 08:53:15;;;;;;;15.20;3.42;;;8.60;99.90;;;;;;5035283;28;20052;-74
2021/01/29 08:56:16;;;;;;;14.20;3.25;;;8.60;99.90;;;;;;5031886;28;20094;-74
2021/01/29 08:59:03;;;;;;;17.23;3.35;;;8.60;99.90;;;;;;5046110;28;20044;-74
2021/01/29 09:02:02;;;;;;;17.95;3.58;;;8.50;99.90;;;;;;5028026;28;20045;-74
2021/01/29 09:04:42;;;;;;;18.55;3.67;;;8.50;99.90;;;;;;4970289;28;20120;-74
2021/01/29 09:07:29;;;;;;;14.60;3.33;;;8.50;99.90;;;;;;4968108;28;20054;-74
2021/01/29 09:10:27;;;;;;;14.52;3.28;;;8.50;99.90;;;;;;5044047;28;20496;-74
2021/01/29 09:13:07;;;;;;;15.40;3.33;;;8.40;99.90;;;;;;5027404;28;20147;-74
2021/01/29 09:15:36;;;;;;;14.30;2.97;;;8.40;99.90;;;;;;5031408;28;20057;-74
2021/01/29 09:18:05;;;;;;;;;;;8.40;99.90;;;;;;5031446;28;20053;-74
2021/01/29 09:20:43;;;;;;;13.48;2.90;;;8.40;99.90;;;;;;5030967;28;20295;-74
2021/01/29 09:23:28;;;;;;;12.15;2.95;;;8.40;99.90;;;;;;5036088;28;20056;-74
2021/01/29 09:26:29;;;;;;;13.82;3.08;;;8.40;99.90;;;;;;5050875;28;20052;-74
2021/01/29 09:29:19;;;;;;;15.77;2.70;;;8.40;99.90;;;;;;5027716;28;20053;-74
2021/01/29 09:31:52;;;;;;;15.93;3.05;;;8.40;99.90;;;;;;5034960;28;20081;-74
2021/01/29 09:34:23;;;;;;;16.27;2.60;;;8.40;99.90;;;;;;5036184;28;20059;-75
2021/01/29 09:36:56;;;;;;;23.52;3.22;;;8.50;99.90;;;;;;5031381;28;20099;-74
2021/01/29 09:39:59;;;;;;;14.95;2.45;;;8.50;99.90;;;;;;5038380;28;20123;-74
2021/01/29 09:43:12;;;;;;;17.35;3.03;;;8.50;99.90;;;;;;5033703;28;20053;-74
2021/01/29 09:45:41;;;;;;;21.35;3.40;;;8.50;99.90;;;;;;5048882;28;20116;-74
2021/01/29 09:48:13;;;;;;;19.13;2.75;;;8.60;99.90;;;;;;5032752;28;20044;-74
2021/01/29 09:50:41;;;;;;;9.07;2.78;;;8.60;99.90;;;;;;5035782;28;20136;-74
2021/01/29 09:53:19;;;;;;;17.45;3.17;;;8.60;99.90;;;;;;5033631;28;20050;-74
2021/01/29 09:55:54;;;;;;;11.00;3.40;;;8.60;99.90;;;;;;5032320;28;20037;-74
2021/01/29 09:58:39;;;;;;;16.95;3.67;;;8.70;99.90;;;;;;5032166;28;20060;-75
2021/01/29 10:01:13;;;;;;;15.57;2.67;;;8.70;99.90;;;;;;5031299;28;20057;-74
2021/01/29 10:04:06;;;;;;;15.50;3.28;;;8.70;99.90;;;;;;5012245;28;20058;-74
2021/01/29 10:06:34;;;;;;;10.88;2.80;;;8.70;99.90;;;;;;5020460;28;20384;-74
2021/01/29 10:09:16;;;;;;;15.10;3.25;;;8.80;99.90;;;;;;5030017;28;20060;-74
2021/01/29 10:11:54;;;;;;;14.90;2.60;;;8.80;99.90;;;;;;5025029;28;20049;-74
2021/01/29 10:14:30;;;;;;;13.00;3.20;;;8.90;99.90;;;;;;5031893;28;20053;-74
2021/01/29 10:17:23;;;;;;;17.00;2.95;;;8.90;99.90;;;;;;5031175;28;20063;-75
2021/01/29 10:20:06;;;;;;;14.00;3.13;;;9.00;99.90;;;;;;5031927;28;20052;-75
2021/01/29 10:23:18;;;;;;;12.45;2.67;;;9.00;99.90;;;;;;5029609;28;20045;-75
2021/01/29 10:25:57;;;;;;;16.60;3.22;;;9.10;99.90;;;;;;5011732;28;20042;-75
2021/01/29 10:28:54;;;;;;;13.80;3.22;;;9.20;99.90;;;;;;5011912;28;20065;-74
2021/01/29 10:31:26;;;;;;;17.65;2.90;;;9.30;99.90;;;;;;5012767;28;20392;-75
2021/01/29 10:34:29;;;;;;;11.55;2.92;;;9.40;99.90;;;;;;5016154;28;20496;-74
2021/01/29 10:37:23;;;;;;;13.32;2.67;;;9.50;99.90;;;;;;4971093;28;20078;-75
2021/01/29 10:39:59;;;;;;;13.32;3.03;;;9.60;99.90;;;;;;4972285;28;20685;-74
2021/01/29 10:42:36;;;;;;;13.10;2.40;;;9.70;99.90;;;;;;5012778;28;20714;-74
2021/01/29 10:45:03;;;;;;;14.68;2.92;;;9.80;99.90;;;;;;5011062;28;20381;-74
2021/01/29 10:48:01;;;;;;;16.33;2.45;;;9.90;99.90;;;;;;5014034;28;20100;-75
2021/01/29 10:50:33;;;;;;;8.93;2.40;;;9.90;99.90;;;;;;5013975;28;20137;-74
2021/01/29 10:53:18;;;;;;;12.60;2.72;;;10.00;99.90;;;;;;5012020;28;20107;-74
2021/01/29 10:55:57;;;;;;;16.45;2.80;;;10.10;99.90;;;;;;5009997;28;20038;-74
2021/01/29 10:58:54;;;;;;;15.27;2.88;;;10.10;99.90;;;;;;5011837;28;20055;-75
2021/01/29 11:01:32;;;;;;;11.60;2.58;;;10.10;99.90;;;;;;5000854;28;20048;-74
2021/01/29 11:04:17;;;;;;;15.80;2.90;;;10.20;99.90;;;;;;5006132;28;20060;-74
2021/01/29 11:06:53;;;;;;;9.70;2.50;;;10.20;99.90;;;;;;5011105;28;20053;-74
2021/01/29 11:09:25;;;;;;;16.83;2.88;;;10.20;99.90;;;;;;5010244;28;20053;-74
2021/01/29 11:12:31;;;;;;;13.10;2.80;;;10.20;99.90;;;;;;5008793;28;20127;-74
2021/01/29 11:15:25;;;;;;;16.05;2.40;;;10.10;99.90;;;;;;5009288;28;20057;-74
2021/01/29 11:18:10;;;;;;;9.88;2.17;;;10.10;99.90;;;;;;5012132;28;20128;-74
2021/01/29 11:20:39;;;;;;;10.60;2.40;;;10.10;99.90;;;;;;5018095;28;20060;-74
2021/01/29 11:23:28;;;;;;;17.50;3.05;;;10.10;99.90;;;;;;5049157;28;20053;-74
2021/01/29 11:26:32;;;;;;;15.73;2.92;;;10.00;99.90;;;;;;5011895;28;20049;-75
2021/01/29 11:29:11;;;;;;;15.18;2.65;;;10.00;99.90;;;;;;5022782;28;20064;-74
2021/01/29 11:32:03;;;;;;;13.55;2.58;;;10.00;99.90;;;;;;5027927;28;20053;-74
2021/01/29 11:34:33;;;;;;;15.45;2.67;;;9.90;99.90;;;;;;5011386;28;20432;-74
2021/01/29 11:37:16;;;;;;;24.30;2.60;;;9.90;99.90;;;;;;5043263;28;20053;-74
2021/01/29 11:40:32;;;;;;;7.80;1.80;;;9.90;99.90;;;;;;5022347;28;20111;-74
2021/01/29 11:43:05;;;;;;;9.63;2.28;;;9.90;99.90;;;;;;4955570;28;20058;-74
2021/01/29 11:45:42;;;;;;;10.20;1.65;;;9.90;99.90;;;;;;4976456;28;20062;-74
2021/01/29 11:48:31;;;;;;;12.93;2.67;;;9.90;99.90;;;;;;4974285;28;20125;-74
2021/01/29 11:51:13;;;;;;;10.77;2.33;;;9.90;99.90;;;;;;5000954;28;20108;-74
2021/01/29 11:54:10;;;;;;;12.25;2.60;;;9.90;99.90;;;;;;5015911;28;20052;-74
2021/01/29 11:57:01;;;;;;;7.78;1.85;;;9.90;99.90;;;;;;5018369;28;20138;-74
2021/01/29 11:59:53;;;;;;;12.18;2.63;;;9.90;99.90;;;;;;5025219;28;20080;-74
2021/01/29 12:02:39;;;;;;;8.93;2.25;;;9.90;99.90;;;;;;5031296;28;20465;-74
2021/01/29 12:05:19;;;;;;;7.93;1.85;;;9.90;99.90;;;;;;5028905;28;20179;-74
2021/01/29 12:08:06;;;;;;;9.70;2.47;;;9.90;99.90;;;;;;5028781;28;20044;-74
2021/01/29 12:10:52;;;;;;;11.95;2.88;;;9.90;99.90;;;;;;5026831;28;20115;-74
2021/01/29 12:13:25;;;;;;;15.00;2.40;;;9.80;99.90;;;;;;5040076;28;20090;-74
2021/01/29 12:16:00;;;;;;;15.10;2.50;;;9.80;99.90;;;;;;5022036;28;20049;-74
2021/01/29 12:18:33;;;;;;;10.23;1.88;;;9.70;99.90;;;;;;5033131;28;20053;-74
2021/01/29 12:21:15;;;;;;;8.13;1.90;;;9.60;99.90;;;;;;5023463;28;20061;-74
2021/01/29 12:23:55;;;;;;;15.07;2.20;;;9.50;99.90;;;;;;5012109;28;20422;-74
2021/01/29 12:26:48;;;;;;;9.43;2.05;;;9.40;99.90;;;;;;5028791;28;20412;-74
2021/01/29 12:29:17;;;;;;;10.93;2.15;;;9.30;99.90;;;;;;5008147;28;20081;-74
2021/01/29 12:32:20;;;;;;;16.35;2.00;;;9.30;99.90;;;;;;5012561;28;20069;-74
2021/01/29 12:35:20;;;;;;;10.23;2.05;;;9.20;99.90;;;;;;5034670;28;20057;-73
2021/01/29 12:38:21;;;;;;;13.93;2.20;;;9.20;99.90;;;;;;5010947;28;20052;-73
2021/01/29 12:41:16;;;;;;;11.65;2.53;;;9.20;99.90;;;;;;5000958;28;20049;-73
2021/01/29 12:44:04;;;;;;;9.43;1.60;;;9.20;99.90;;;;;;5009942;28;20120;-73
2021/01/29 12:46:42;;;;;;;8.00;1.97;;;9.10;99.90;;;;;;5003672;28;20408;-73
2021/01/29 12:49:18;;;;;;;15.32;2.58;;;9.10;99.90;;;;;;5010329;28;20084;-74
2021/01/29 12:52:19;;;;;;;5.45;1.58;;;9.10;99.90;;;;;;5007716;28;20049;-73
2021/01/29 12:54:50;;;;;;;9.80;2.75;;;9.00;99.90;;;;;;4995408;28;20045;-73
2021/01/29 12:57:26;;;;;;;8.88;2.03;;;9.00;99.90;;;;;;5006169;28;20730;-72
2021/01/29 13:00:04;;;;;;;6.68;1.67;;;9.00;99.90;;;;;;5010178;28;20051;-72
2021/01/29 13:03:08;;;;;;;13.75;1.73;;;9.00;99.90;;;;;;5019569;28;20060;-73
2021/01/29 13:06:03;;;;;;;13.05;2.17;;;9.00;99.90;;;;;;5008704;28;20510;-72
2021/01/29 13:08:44;;;;;;;13.27;2.28;;;9.00;99.90;;;;;;5001497;28;21516;-72
2021/01/29 13:11:32;;;;;;;7.00;1.30;;;9.00;99.90;;;;;;5009267;28;20050;-72
2021/01/29 13:14:02;;;;;;;11.40;2.30;;;9.10;99.90;;;;;;5001166;28;20501;-72
2021/01/29 13:17:05;;;;;;;7.90;1.80;;;9.10;99.90;;;;;;5002328;28;20462;-72
2021/01/29 13:19:39;;;;;;;7.35;1.85;;;9.20;99.90;;;;;;5009357;28;20041;-73
2021/01/29 13:22:32;;;;;;;9.75;1.58;;;9.20;99.90;;;;;;5019487;28;20222;-73
2021/01/29 13:25:14;;;;;;;6.47;1.65;;;9.30;99.90;;;;;;5034898;28;20049;-73
2021/01/29 13:27:46;;;;;;;6.55;1.90;;;9.40;99.90;;;;;;5021704;28;20072;-73
2021/01/29 13:30:35;;;;;;;9.65;2.35;;;9.40;99.90;;;;;;5019629;28;20061;-73
2021/01/29 13:33:10;;;;;;;12.63;2.05;;;9.40;99.90;;;;;;5021022;28;20049;-73
2021/01/29 13:35:38;;;;;;;7.35;1.80;;;9.40;99.90;;;;;;5021370;28;20110;-73
2021/01/29 13:38:22;;;;;;;8.50;2.03;;;9.40;99.90;;;;;;5017941;28;20045;-72
2021/01/29 13:40:50;;;;;;;11.15;2.15;;;9.40;99.90;;;;;;5024460;28;20354;-73
2021/01/29 13:43:31;;;;;;;11.25;1.70;;;9.40;99.90;;;;;;5022941;28;20451;-73
2021/01/29 13:46:01;;;;;;;11.48;2.13;;;9.40;99.90;;;;;;5037416;28;20045;-73
2021/01/29 13:48:28;;;;;;;10.65;2.45;;;9.40;99.90;;;;;;5029023;28;20048;-73
2021/01/29 13:51:36;;;;;;;10.10;2.17;;;9.50;99.90;;;;;;5023517;28;20084;-73
2021/01/29 13:54:02;;;;;;;9.77;2.13;;;9.60;99.90;;;;;;5022473;28;20057;-73
2021/01/29 13:56:38;;;;;;;9.75;1.63;;;9.60;99.90;;;;;;5026339;28;20067;-72
2021/01/29 13:59:08;;;;;;;11.02;2.33;;;9.60;99.90;;;;;;5004880;28;20048;-73
2021/01/29 14:01:46;;;;;;;11.93;2.00;;;9.70;99.90;;;;;;5014749;28;20042;-73
2021/01/29 14:04:40;;;;;;;8.85;2.10;;;9.70;99.90;;;;;;5020971;28;20145;-73
2021/01/29 14:07:08;;;;;;;7.95;2.03;;;9.70;99.90;;;;;;5024785;28;20045;-73
2021/01/29 14:09:34;;;;;;;6.30;1.85;;;9.70;99.90;;;;;;5023527;28;20040;-73
2021/01/29 14:12:25;;;;;;;8.98;1.92;;;9.70;99.90;;;;;;5025520;28;20056;-73
2021/01/29 14:14:58;;;;;;;7.13;1.70;;;9.70;99.90;;;;;;5024985;28;20156;-73
2021/01/29 14:17:31;;;;;;;9.05;2.13;;;9.70;99.90;;;;;;5023613;28;20057;-73
2021/01/29 14:20:22;;;;;;;12.27;2.78;;;9.70;99.90;;;;;;5022926;28;20045;-73
2021/01/29 14:23:23;;;;;;;8.80;1.75;;;9.70;99.90;;;;;;5029621;28;20476;-73
2021/01/29 14:26:11;;;;;;;6.80;1.75;;;9.70;99.90;;;;;;5044034;28;20073;-73
2021/01/29 14:28:49;;;;;;;9.20;2.33;;;9.70;99.90;;;;;;5032381;28;20088;-72